sensor_id;sensor_type;location;lat;lon;timestamp;P1;durP1;ratioP1;P2;durP2;ratioP2
7843;SDS011;3967;48.702;9.326;2024-03-08T00:01:22;27.27;;;15.83;;
7843;SDS011;3967;48.702;9.326;2024-03-08T00:03:49;22.43;;;15.07;;
7843;SDS011;3967;48.702;9.326;2024-03-08T00:06:18;25.50;;;16.40;;
7843;SDS011;3967;48.702;9.326;2024-03-08T00:08:45;25.37;;;15.47;;
7843;SDS011;3967;48.702;9.326;2024-03-08T00:11:11;25.50;;;15.57;;
7843;SDS011;3967;48.702;9.326;2024-03-08T00:13:38;22.27;;;14.03;;
7843;SDS011;3967;48.702;9.326;2024-03-08T00:16:05;26.43;;;16.50;;
7843;SDS011;3967;48.702;9.326;2024-03-08T00:18:32;26.23;;;17.30;;
7843;SDS011;3967;48.702;9.326;2024-03-08T00:20:59;24.90;;;15.43;;
7843;SDS011;3967;48.702;9.326;2024-03-08T00:23:26;25.40;;;15.33;;
7843;SDS011;3967;48.702;9.326;2024-03-08T00:25:54;21.83;;;15.57;;
7843;SDS011;3967;48.702;9.326;2024-03-08T00:28:22;28.80;;;16.60;;
7843;SDS011;3967;48.702;9.326;2024-03-08T00:30:51;24.37;;;14.43;;
7843;SDS011;3967;48.702;9.326;2024-03-08T00:33:17;27.77;;;15.33;;
7843;SDS011;3967;48.702;9.326;2024-03-08T00:35:44;23.30;;;14.93;;
7843;SDS011;3967;48.702;9.326;2024-03-08T00:38:11;26.23;;;14.70;;
7843;SDS011;3967;48.702;9.326;2024-03-08T00:40:39;23.20;;;15.33;;
7843;SDS011;3967;48.702;9.326;2024-03-08T00:43:06;25.70;;;16.00;;
7843;SDS011;3967;48.702;9.326;2024-03-08T00:45:33;25.93;;;15.30;;
7843;SDS011;3967;48.702;9.326;2024-03-08T00:48:00;23.77;;;16.10;;
7843;SDS011;3967;48.702;9.326;2024-03-08T00:50:27;28.90;;;16.80;;
7843;SDS011;3967;48.702;9.326;2024-03-08T00:52:54;26.50;;;16.03;;
7843;SDS011;3967;48.702;9.326;2024-03-08T00:55:20;24.07;;;15.60;;
7843;SDS011;3967;48.702;9.326;2024-03-08T00:57:47;25.83;;;15.60;;
7843;SDS011;3967;48.702;9.326;2024-03-08T01:00:14;25.87;;;15.33;;
7843;SDS011;3967;48.702;9.326;2024-03-08T01:02:41;31.00;;;16.57;;
7843;SDS011;3967;48.702;9.326;2024-03-08T01:05:08;22.53;;;14.73;;
7843;SDS011;3967;48.702;9.326;2024-03-08T01:07:35;23.50;;;15.10;;
7843;SDS011;3967;48.702;9.326;2024-03-08T01:10:04;25.77;;;16.00;;
7843;SDS011;3967;48.702;9.326;2024-03-08T01:12:36;27.33;;;15.37;;
7843;SDS011;3967;48.702;9.326;2024-03-08T01:15:02;25.93;;;15.70;;
7843;SDS011;3967;48.702;9.326;2024-03-08T01:17:29;21.30;;;14.73;;
7843;SDS011;3967;48.702;9.326;2024-03-08T01:19:57;29.37;;;16.47;;
7843;SDS011;3967;48.702;9.326;2024-03-08T01:22:24;27.33;;;16.47;;
7843;SDS011;3967;48.702;9.326;2024-03-08T01:24:51;27.53;;;15.50;;
7843;SDS011;3967;48.702;9.326;2024-03-08T01:27:18;24.30;;;15.07;;
7843;SDS011;3967;48.702;9.326;2024-03-08T01:29:44;25.20;;;15.83;;
7843;SDS011;3967;48.702;9.326;2024-03-08T01:32:11;26.43;;;15.50;;
7843;SDS011;3967;48.702;9.326;2024-03-08T01:34:38;23.43;;;15.17;;
7843;SDS011;3967;48.702;9.326;2024-03-08T01:37:05;23.60;;;14.83;;
7843;SDS011;3967;48.702;9.326;2024-03-08T01:39:32;24.17;;;14.07;;
7843;SDS011;3967;48.702;9.326;2024-03-08T01:41:59;23.40;;;14.23;;
7843;SDS011;3967;48.702;9.326;2024-03-08T01:44:27;24.63;;;14.83;;
7843;SDS011;3967;48.702;9.326;2024-03-08T01:46:53;25.63;;;15.40;;
7843;SDS011;3967;48.702;9.326;2024-03-08T01:49:21;20.73;;;13.87;;
7843;SDS011;3967;48.702;9.326;2024-03-08T01:51:48;25.73;;;13.77;;
7843;SDS011;3967;48.702;9.326;2024-03-08T01:54:16;24.03;;;14.70;;
7843;SDS011;3967;48.702;9.326;2024-03-08T01:56:44;22.57;;;14.00;;
7843;SDS011;3967;48.702;9.326;2024-03-08T01:59:12;26.80;;;13.83;;
7843;SDS011;3967;48.702;9.326;2024-03-08T02:01:40;21.17;;;13.53;;
7843;SDS011;3967;48.702;9.326;2024-03-08T02:04:07;27.23;;;14.80;;
7843;SDS011;3967;48.702;9.326;2024-03-08T02:06:35;23.80;;;14.20;;
7843;SDS011;3967;48.702;9.326;2024-03-08T02:09:04;21.47;;;13.73;;
7843;SDS011;3967;48.702;9.326;2024-03-08T02:11:34;22.60;;;13.37;;
7843;SDS011;3967;48.702;9.326;2024-03-08T02:14:02;19.57;;;12.90;;
7843;SDS011;3967;48.702;9.326;2024-03-08T02:16:30;19.83;;;12.20;;
7843;SDS011;3967;48.702;9.326;2024-03-08T02:18:56;18.97;;;12.17;;
7843;SDS011;3967;48.702;9.326;2024-03-08T02:21:24;22.03;;;13.67;;
7843;SDS011;3967;48.702;9.326;2024-03-08T02:23:51;20.47;;;13.57;;
7843;SDS011;3967;48.702;9.326;2024-03-08T02:26:21;21.40;;;14.13;;
7843;SDS011;3967;48.702;9.326;2024-03-08T02:28:49;22.37;;;13.93;;
7843;SDS011;3967;48.702;9.326;2024-03-08T02:31:15;22.37;;;13.20;;
7843;SDS011;3967;48.702;9.326;2024-03-08T02:33:42;21.70;;;12.83;;
7843;SDS011;3967;48.702;9.326;2024-03-08T02:36:09;20.13;;;11.87;;
7843;SDS011;3967;48.702;9.326;2024-03-08T02:38:36;20.53;;;13.00;;
7843;SDS011;3967;48.702;9.326;2024-03-08T02:41:04;22.20;;;13.10;;
7843;SDS011;3967;48.702;9.326;2024-03-08T02:43:31;20.47;;;12.97;;
7843;SDS011;3967;48.702;9.326;2024-03-08T02:45:57;23.17;;;13.53;;
7843;SDS011;3967;48.702;9.326;2024-03-08T02:48:24;22.67;;;13.77;;
7843;SDS011;3967;48.702;9.326;2024-03-08T02:50:52;20.20;;;12.60;;
7843;SDS011;3967;48.702;9.326;2024-03-08T02:53:19;21.90;;;13.53;;
7843;SDS011;3967;48.702;9.326;2024-03-08T02:55:46;21.60;;;14.00;;
7843;SDS011;3967;48.702;9.326;2024-03-08T02:58:13;22.17;;;13.80;;
7843;SDS011;3967;48.702;9.326;2024-03-08T03:00:41;22.00;;;13.97;;
7843;SDS011;3967;48.702;9.326;2024-03-08T03:03:10;22.13;;;13.57;;
7843;SDS011;3967;48.702;9.326;2024-03-08T03:05:37;22.33;;;14.17;;
7843;SDS011;3967;48.702;9.326;2024-03-08T03:08:04;24.47;;;13.47;;
7843;SDS011;3967;48.702;9.326;2024-03-08T03:10:36;23.07;;;13.70;;
7843;SDS011;3967;48.702;9.326;2024-03-08T03:13:03;22.27;;;13.67;;
7843;SDS011;3967;48.702;9.326;2024-03-08T03:15:31;21.03;;;13.40;;
7843;SDS011;3967;48.702;9.326;2024-03-08T03:17:58;22.60;;;14.37;;
7843;SDS011;3967;48.702;9.326;2024-03-08T03:20:24;22.60;;;13.57;;
7843;SDS011;3967;48.702;9.326;2024-03-08T03:22:59;22.10;;;13.83;;
7843;SDS011;3967;48.702;9.326;2024-03-08T03:25:28;23.20;;;13.37;;
7843;SDS011;3967;48.702;9.326;2024-03-08T03:28:02;25.40;;;14.67;;
7843;SDS011;3967;48.702;9.326;2024-03-08T03:30:30;21.10;;;14.67;;
7843;SDS011;3967;48.702;9.326;2024-03-08T03:33:00;23.87;;;14.63;;
7843;SDS011;3967;48.702;9.326;2024-03-08T03:35:28;20.67;;;14.03;;
7843;SDS011;3967;48.702;9.326;2024-03-08T03:37:55;24.40;;;14.13;;
7843;SDS011;3967;48.702;9.326;2024-03-08T03:40:37;21.47;;;13.13;;
7843;SDS011;3967;48.702;9.326;2024-03-08T03:43:05;22.77;;;13.87;;
7843;SDS011;3967;48.702;9.326;2024-03-08T03:45:32;23.23;;;13.27;;
7843;SDS011;3967;48.702;9.326;2024-03-08T03:48:03;25.70;;;14.43;;
7843;SDS011;3967;48.702;9.326;2024-03-08T03:50:33;23.87;;;14.67;;
7843;SDS011;3967;48.702;9.326;2024-03-08T03:53:01;22.87;;;14.20;;
7843;SDS011;3967;48.702;9.326;2024-03-08T03:55:29;23.57;;;14.50;;
7843;SDS011;3967;48.702;9.326;2024-03-08T03:57:56;21.90;;;13.63;;
7843;SDS011;3967;48.702;9.326;2024-03-08T04:00:25;26.30;;;15.13;;
7843;SDS011;3967;48.702;9.326;2024-03-08T04:02:53;28.77;;;16.70;;
7843;SDS011;3967;48.702;9.326;2024-03-08T04:05:21;25.77;;;14.90;;
7843;SDS011;3967;48.702;9.326;2024-03-08T04:07:48;23.00;;;14.70;;
7843;SDS011;3967;48.702;9.326;2024-03-08T04:10:14;26.87;;;16.10;;
7843;SDS011;3967;48.702;9.326;2024-03-08T04:12:41;25.47;;;16.00;;
7843;SDS011;3967;48.702;9.326;2024-03-08T04:15:08;25.90;;;15.13;;
7843;SDS011;3967;48.702;9.326;2024-03-08T04:17:37;23.93;;;14.73;;
7843;SDS011;3967;48.702;9.326;2024-03-08T04:20:04;24.47;;;14.67;;
7843;SDS011;3967;48.702;9.326;2024-03-08T04:22:36;24.47;;;16.43;;
7843;SDS011;3967;48.702;9.326;2024-03-08T04:25:03;25.37;;;15.47;;
7843;SDS011;3967;48.702;9.326;2024-03-08T04:27:35;29.07;;;16.23;;
7843;SDS011;3967;48.702;9.326;2024-03-08T04:30:02;25.87;;;15.63;;
7843;SDS011;3967;48.702;9.326;2024-03-08T04:32:30;26.50;;;16.33;;
7843;SDS011;3967;48.702;9.326;2024-03-08T04:34:59;25.73;;;15.83;;
7843;SDS011;3967;48.702;9.326;2024-03-08T04:37:27;24.57;;;14.87;;
7843;SDS011;3967;48.702;9.326;2024-03-08T04:39:56;25.97;;;15.53;;
7843;SDS011;3967;48.702;9.326;2024-03-08T04:42:23;27.13;;;15.80;;
7843;SDS011;3967;48.702;9.326;2024-03-08T04:44:50;29.73;;;15.90;;
7843;SDS011;3967;48.702;9.326;2024-03-08T04:47:17;27.27;;;16.37;;
7843;SDS011;3967;48.702;9.326;2024-03-08T04:49:44;25.50;;;15.33;;
7843;SDS011;3967;48.702;9.326;2024-03-08T04:52:11;28.40;;;16.33;;
7843;SDS011;3967;48.702;9.326;2024-03-08T04:54:38;24.37;;;15.60;;
7843;SDS011;3967;48.702;9.326;2024-03-08T04:57:05;29.30;;;16.67;;
7843;SDS011;3967;48.702;9.326;2024-03-08T04:59:34;28.03;;;15.77;;
7843;SDS011;3967;48.702;9.326;2024-03-08T05:02:02;26.90;;;16.10;;
7843;SDS011;3967;48.702;9.326;2024-03-08T05:04:29;25.67;;;15.47;;
7843;SDS011;3967;48.702;9.326;2024-03-08T05:06:56;23.80;;;15.63;;
7843;SDS011;3967;48.702;9.326;2024-03-08T05:09:23;29.20;;;16.27;;
7843;SDS011;3967;48.702;9.326;2024-03-08T05:11:50;24.87;;;14.83;;
7843;SDS011;3967;48.702;9.326;2024-03-08T05:14:17;29.70;;;17.33;;
7843;SDS011;3967;48.702;9.326;2024-03-08T05:16:46;25.83;;;15.87;;
7843;SDS011;3967;48.702;9.326;2024-03-08T05:19:15;32.47;;;17.77;;
7843;SDS011;3967;48.702;9.326;2024-03-08T05:21:46;25.57;;;15.07;;
7843;SDS011;3967;48.702;9.326;2024-03-08T05:24:14;26.17;;;15.37;;
7843;SDS011;3967;48.702;9.326;2024-03-08T05:26:42;26.57;;;15.73;;
7843;SDS011;3967;48.702;9.326;2024-03-08T05:29:12;25.63;;;16.57;;
7843;SDS011;3967;48.702;9.326;2024-03-08T05:31:46;25.10;;;15.73;;
7843;SDS011;3967;48.702;9.326;2024-03-08T05:34:15;28.17;;;15.80;;
7843;SDS011;3967;48.702;9.326;2024-03-08T05:36:43;31.43;;;17.60;;
7843;SDS011;3967;48.702;9.326;2024-03-08T05:39:11;24.90;;;15.93;;
7843;SDS011;3967;48.702;9.326;2024-03-08T05:41:42;28.70;;;15.13;;
7843;SDS011;3967;48.702;9.326;2024-03-08T05:44:09;29.23;;;15.67;;
7843;SDS011;3967;48.702;9.326;2024-03-08T05:46:37;26.93;;;16.10;;
7843;SDS011;3967;48.702;9.326;2024-03-08T05:49:06;25.60;;;16.53;;
7843;SDS011;3967;48.702;9.326;2024-03-08T05:51:33;29.53;;;16.87;;
7843;SDS011;3967;48.702;9.326;2024-03-08T05:54:04;25.87;;;16.37;;
7843;SDS011;3967;48.702;9.326;2024-03-08T05:56:32;27.80;;;16.60;;
7843;SDS011;3967;48.702;9.326;2024-03-08T05:58:59;27.23;;;15.87;;
7843;SDS011;3967;48.702;9.326;2024-03-08T06:01:26;26.63;;;15.13;;
7843;SDS011;3967;48.702;9.326;2024-03-08T06:03:54;29.80;;;16.73;;
7843;SDS011;3967;48.702;9.326;2024-03-08T06:06:25;31.40;;;16.90;;
7843;SDS011;3967;48.702;9.326;2024-03-08T06:08:52;29.43;;;17.13;;
7843;SDS011;3967;48.702;9.326;2024-03-08T06:11:19;26.10;;;15.67;;
7843;SDS011;3967;48.702;9.326;2024-03-08T06:13:47;28.13;;;17.60;;
7843;SDS011;3967;48.702;9.326;2024-03-08T06:16:14;30.20;;;17.50;;
7843;SDS011;3967;48.702;9.326;2024-03-08T06:18:41;27.23;;;16.50;;
7843;SDS011;3967;48.702;9.326;2024-03-08T06:21:08;26.87;;;15.77;;
7843;SDS011;3967;48.702;9.326;2024-03-08T06:23:39;31.30;;;16.97;;
7843;SDS011;3967;48.702;9.326;2024-03-08T06:26:06;27.53;;;16.47;;
7843;SDS011;3967;48.702;9.326;2024-03-08T06:28:34;31.87;;;18.50;;
7843;SDS011;3967;48.702;9.326;2024-03-08T06:31:01;28.50;;;17.10;;
7843;SDS011;3967;48.702;9.326;2024-03-08T06:33:28;29.47;;;17.47;;
7843;SDS011;3967;48.702;9.326;2024-03-08T06:35:56;29.27;;;16.37;;
7843;SDS011;3967;48.702;9.326;2024-03-08T06:38:24;27.60;;;15.93;;
7843;SDS011;3967;48.702;9.326;2024-03-08T06:40:51;25.43;;;15.73;;
7843;SDS011;3967;48.702;9.326;2024-03-08T06:43:18;29.17;;;17.00;;
7843;SDS011;3967;48.702;9.326;2024-03-08T06:45:45;26.97;;;16.03;;
7843;SDS011;3967;48.702;9.326;2024-03-08T06:48:15;27.30;;;16.97;;
7843;SDS011;3967;48.702;9.326;2024-03-08T06:50:46;30.13;;;16.53;;
7843;SDS011;3967;48.702;9.326;2024-03-08T06:53:14;28.23;;;15.67;;
7843;SDS011;3967;48.702;9.326;2024-03-08T06:55:43;32.40;;;17.23;;
7843;SDS011;3967;48.702;9.326;2024-03-08T06:58:10;27.20;;;16.57;;
7843;SDS011;3967;48.702;9.326;2024-03-08T07:00:37;28.83;;;16.97;;
7843;SDS011;3967;48.702;9.326;2024-03-08T07:03:07;29.37;;;17.33;;
7843;SDS011;3967;48.702;9.326;2024-03-08T07:05:38;25.67;;;16.53;;
7843;SDS011;3967;48.702;9.326;2024-03-08T07:08:06;28.07;;;16.97;;
7843;SDS011;3967;48.702;9.326;2024-03-08T07:10:33;29.80;;;17.20;;
7843;SDS011;3967;48.702;9.326;2024-03-08T07:13:01;28.30;;;17.47;;
7843;SDS011;3967;48.702;9.326;2024-03-08T07:15:28;26.43;;;16.00;;
7843;SDS011;3967;48.702;9.326;2024-03-08T07:17:55;24.20;;;15.73;;
7843;SDS011;3967;48.702;9.326;2024-03-08T07:20:22;27.83;;;17.03;;
7843;SDS011;3967;48.702;9.326;2024-03-08T07:22:49;27.87;;;16.23;;
7843;SDS011;3967;48.702;9.326;2024-03-08T07:25:19;26.20;;;16.83;;
7843;SDS011;3967;48.702;9.326;2024-03-08T07:27:48;28.57;;;16.77;;
7843;SDS011;3967;48.702;9.326;2024-03-08T07:30:15;29.47;;;17.33;;
7843;SDS011;3967;48.702;9.326;2024-03-08T07:33:20;27.23;;;17.23;;
7843;SDS011;3967;48.702;9.326;2024-03-08T07:35:49;26.63;;;16.40;;
7843;SDS011;3967;48.702;9.326;2024-03-08T07:38:16;26.23;;;16.07;;
7843;SDS011;3967;48.702;9.326;2024-03-08T07:40:43;26.47;;;15.50;;
7843;SDS011;3967;48.702;9.326;2024-03-08T07:43:14;23.57;;;16.53;;
7843;SDS011;3967;48.702;9.326;2024-03-08T07:45:40;26.43;;;15.93;;
7843;SDS011;3967;48.702;9.326;2024-03-08T07:48:07;28.90;;;17.13;;
7843;SDS011;3967;48.702;9.326;2024-03-08T07:50:39;28.87;;;17.30;;
7843;SDS011;3967;48.702;9.326;2024-03-08T07:53:07;27.77;;;16.87;;
7843;SDS011;3967;48.702;9.326;2024-03-08T07:55:35;25.20;;;15.57;;
7843;SDS011;3967;48.702;9.326;2024-03-08T07:58:02;27.53;;;16.07;;
7843;SDS011;3967;48.702;9.326;2024-03-08T08:00:29;24.70;;;16.43;;
7843;SDS011;3967;48.702;9.326;2024-03-08T08:02:58;25.87;;;16.37;;
7843;SDS011;3967;48.702;9.326;2024-03-08T08:05:25;27.70;;;15.90;;
7843;SDS011;3967;48.702;9.326;2024-03-08T08:07:52;24.37;;;15.10;;
7843;SDS011;3967;48.702;9.326;2024-03-08T08:10:20;25.57;;;16.30;;
7843;SDS011;3967;48.702;9.326;2024-03-08T08:12:52;28.20;;;16.60;;
7843;SDS011;3967;48.702;9.326;2024-03-08T08:15:19;24.73;;;16.07;;
7843;SDS011;3967;48.702;9.326;2024-03-08T08:17:46;27.10;;;16.17;;
7843;SDS011;3967;48.702;9.326;2024-03-08T08:20:16;27.90;;;15.63;;
7843;SDS011;3967;48.702;9.326;2024-03-08T08:22:44;26.03;;;16.03;;
7843;SDS011;3967;48.702;9.326;2024-03-08T08:25:11;24.27;;;15.00;;
7843;SDS011;3967;48.702;9.326;2024-03-08T08:27:39;25.07;;;15.03;;
7843;SDS011;3967;48.702;9.326;2024-03-08T08:30:06;25.70;;;16.87;;
7843;SDS011;3967;48.702;9.326;2024-03-08T08:32:35;26.43;;;16.10;;
7843;SDS011;3967;48.702;9.326;2024-03-08T08:35:05;24.97;;;15.77;;
7843;SDS011;3967;48.702;9.326;2024-03-08T08:37:33;27.73;;;15.93;;
7843;SDS011;3967;48.702;9.326;2024-03-08T08:40:03;25.57;;;15.33;;
7843;SDS011;3967;48.702;9.326;2024-03-08T08:42:31;25.37;;;15.57;;
7843;SDS011;3967;48.702;9.326;2024-03-08T08:44:58;25.40;;;15.80;;
7843;SDS011;3967;48.702;9.326;2024-03-08T08:47:34;26.70;;;17.23;;
7843;SDS011;3967;48.702;9.326;2024-03-08T08:50:03;25.17;;;15.37;;
7843;SDS011;3967;48.702;9.326;2024-03-08T08:52:31;27.07;;;15.70;;
7843;SDS011;3967;48.702;9.326;2024-03-08T08:54:58;26.10;;;16.13;;
7843;SDS011;3967;48.702;9.326;2024-03-08T08:57:25;27.53;;;16.17;;
7843;SDS011;3967;48.702;9.326;2024-03-08T08:59:53;25.33;;;15.90;;
7843;SDS011;3967;48.702;9.326;2024-03-08T09:02:21;26.97;;;16.33;;
7843;SDS011;3967;48.702;9.326;2024-03-08T09:04:48;26.03;;;15.70;;
7843;SDS011;3967;48.702;9.326;2024-03-08T09:07:15;23.67;;;15.67;;
7843;SDS011;3967;48.702;9.326;2024-03-08T09:09:43;25.53;;;15.97;;
7843;SDS011;3967;48.702;9.326;2024-03-08T09:12:10;26.17;;;15.47;;
7843;SDS011;3967;48.702;9.326;2024-03-08T09:14:40;24.40;;;15.00;;
7843;SDS011;3967;48.702;9.326;2024-03-08T09:17:07;23.80;;;14.30;;
7843;SDS011;3967;48.702;9.326;2024-03-08T09:19:35;21.87;;;14.33;;
7843;SDS011;3967;48.702;9.326;2024-03-08T09:22:04;24.10;;;14.40;;
7843;SDS011;3967;48.702;9.326;2024-03-08T09:24:31;23.67;;;15.13;;
7843;SDS011;3967;48.702;9.326;2024-03-08T09:26:57;23.03;;;14.03;;
7843;SDS011;3967;48.702;9.326;2024-03-08T09:29:27;23.60;;;13.80;;
7843;SDS011;3967;48.702;9.326;2024-03-08T09:31:54;20.73;;;14.60;;
7843;SDS011;3967;48.702;9.326;2024-03-08T09:34:21;23.97;;;14.70;;
7843;SDS011;3967;48.702;9.326;2024-03-08T09:36:57;25.87;;;15.23;;
7843;SDS011;3967;48.702;9.326;2024-03-08T09:39:24;22.43;;;13.93;;
7843;SDS011;3967;48.702;9.326;2024-03-08T09:41:53;22.17;;;14.07;;
7843;SDS011;3967;48.702;9.326;2024-03-08T09:44:22;22.70;;;14.80;;
7843;SDS011;3967;48.702;9.326;2024-03-08T09:46:53;21.10;;;13.90;;
7843;SDS011;3967;48.702;9.326;2024-03-08T09:49:20;24.07;;;14.17;;
7843;SDS011;3967;48.702;9.326;2024-03-08T09:51:47;24.30;;;14.57;;
7843;SDS011;3967;48.702;9.326;2024-03-08T09:54:19;21.73;;;13.80;;
7843;SDS011;3967;48.702;9.326;2024-03-08T09:56:51;21.93;;;12.70;;
7843;SDS011;3967;48.702;9.326;2024-03-08T09:59:18;24.33;;;14.53;;
7843;SDS011;3967;48.702;9.326;2024-03-08T10:01:54;22.40;;;13.67;;
7843;SDS011;3967;48.702;9.326;2024-03-08T10:04:25;21.37;;;13.00;;
7843;SDS011;3967;48.702;9.326;2024-03-08T10:06:54;23.43;;;13.90;;
7843;SDS011;3967;48.702;9.326;2024-03-08T10:09:23;23.07;;;13.00;;
7843;SDS011;3967;48.702;9.326;2024-03-08T10:11:53;20.20;;;14.10;;
7843;SDS011;3967;48.702;9.326;2024-03-08T10:14:27;19.63;;;12.50;;
7843;SDS011;3967;48.702;9.326;2024-03-08T10:16:54;20.80;;;12.93;;
7843;SDS011;3967;48.702;9.326;2024-03-08T10:19:26;19.57;;;13.40;;
7843;SDS011;3967;48.702;9.326;2024-03-08T10:21:56;19.33;;;12.80;;
7843;SDS011;3967;48.702;9.326;2024-03-08T10:24:25;20.47;;;13.17;;
7843;SDS011;3967;48.702;9.326;2024-03-08T10:26:53;22.73;;;13.13;;
7843;SDS011;3967;48.702;9.326;2024-03-08T10:29:24;19.73;;;12.93;;
7843;SDS011;3967;48.702;9.326;2024-03-08T10:31:51;19.80;;;13.50;;
7843;SDS011;3967;48.702;9.326;2024-03-08T10:34:18;19.87;;;13.27;;
7843;SDS011;3967;48.702;9.326;2024-03-08T10:36:46;20.87;;;14.43;;
7843;SDS011;3967;48.702;9.326;2024-03-08T10:39:21;20.77;;;13.03;;
7843;SDS011;3967;48.702;9.326;2024-03-08T10:41:52;22.33;;;12.90;;
7843;SDS011;3967;48.702;9.326;2024-03-08T10:47:00;17.27;;;12.47;;
7843;SDS011;3967;48.702;9.326;2024-03-08T10:49:32;21.37;;;13.87;;
7843;SDS011;3967;48.702;9.326;2024-03-08T10:52:05;20.17;;;13.20;;
7843;SDS011;3967;48.702;9.326;2024-03-08T10:54:36;19.03;;;12.90;;
7843;SDS011;3967;48.702;9.326;2024-03-08T10:57:11;20.17;;;12.97;;
7843;SDS011;3967;48.702;9.326;2024-03-08T10:59:39;19.50;;;13.00;;
7843;SDS011;3967;48.702;9.326;2024-03-08T11:02:06;22.73;;;13.57;;
7843;SDS011;3967;48.702;9.326;2024-03-08T11:04:33;20.50;;;13.13;;
7843;SDS011;3967;48.702;9.326;2024-03-08T11:07:03;21.70;;;12.83;;
7843;SDS011;3967;48.702;9.326;2024-03-08T11:09:34;22.47;;;14.33;;
7843;SDS011;3967;48.702;9.326;2024-03-08T11:12:21;23.07;;;14.27;;
7843;SDS011;3967;48.702;9.326;2024-03-08T11:15:11;23.10;;;13.67;;
7843;SDS011;3967;48.702;9.326;2024-03-08T11:17:47;25.47;;;14.80;;
7843;SDS011;3967;48.702;9.326;2024-03-08T11:20:16;21.77;;;13.50;;
7843;SDS011;3967;48.702;9.326;2024-03-08T11:22:48;19.13;;;13.23;;
7843;SDS011;3967;48.702;9.326;2024-03-08T11:28:19;22.80;;;14.50;;
7843;SDS011;3967;48.702;9.326;2024-03-08T11:33:29;22.17;;;14.07;;
7843;SDS011;3967;48.702;9.326;2024-03-08T11:38:41;22.83;;;14.37;;
7843;SDS011;3967;48.702;9.326;2024-03-08T11:41:10;25.87;;;14.13;;
7843;SDS011;3967;48.702;9.326;2024-03-08T11:43:44;23.23;;;13.57;;
7843;SDS011;3967;48.702;9.326;2024-03-08T11:46:12;24.10;;;14.37;;
7843;SDS011;3967;48.702;9.326;2024-03-08T11:48:40;24.43;;;14.17;;
7843;SDS011;3967;48.702;9.326;2024-03-08T11:51:08;22.77;;;13.67;;
7843;SDS011;3967;48.702;9.326;2024-03-08T11:53:40;22.27;;;14.50;;
7843;SDS011;3967;48.702;9.326;2024-03-08T11:56:11;25.13;;;15.17;;
7843;SDS011;3967;48.702;9.326;2024-03-08T11:58:39;24.07;;;14.83;;
7843;SDS011;3967;48.702;9.326;2024-03-08T12:01:07;23.23;;;14.10;;
7843;SDS011;3967;48.702;9.326;2024-03-08T12:03:39;23.60;;;15.40;;
7843;SDS011;3967;48.702;9.326;2024-03-08T12:06:08;25.93;;;15.03;;
7843;SDS011;3967;48.702;9.326;2024-03-08T12:08:35;24.23;;;14.47;;
7843;SDS011;3967;48.702;9.326;2024-03-08T12:11:06;23.37;;;14.97;;
7843;SDS011;3967;48.702;9.326;2024-03-08T12:13:34;26.83;;;15.97;;
7843;SDS011;3967;48.702;9.326;2024-03-08T12:16:04;22.47;;;14.37;;
7843;SDS011;3967;48.702;9.326;2024-03-08T12:18:35;22.73;;;14.17;;
7843;SDS011;3967;48.702;9.326;2024-03-08T12:21:04;24.50;;;15.00;;
7843;SDS011;3967;48.702;9.326;2024-03-08T12:23:34;24.63;;;14.87;;
7843;SDS011;3967;48.702;9.326;2024-03-08T12:26:17;30.20;;;15.27;;
7843;SDS011;3967;48.702;9.326;2024-03-08T12:28:49;27.60;;;14.63;;
7843;SDS011;3967;48.702;9.326;2024-03-08T12:31:16;22.77;;;13.87;;
7843;SDS011;3967;48.702;9.326;2024-03-08T12:33:48;24.33;;;15.67;;
7843;SDS011;3967;48.702;9.326;2024-03-08T12:36:19;22.93;;;15.13;;
7843;SDS011;3967;48.702;9.326;2024-03-08T12:38:46;27.07;;;14.67;;
7843;SDS011;3967;48.702;9.326;2024-03-08T12:41:17;24.37;;;14.23;;
7843;SDS011;3967;48.702;9.326;2024-03-08T12:43:45;22.17;;;13.23;;
7843;SDS011;3967;48.702;9.326;2024-03-08T12:46:16;22.73;;;14.10;;
7843;SDS011;3967;48.702;9.326;2024-03-08T12:48:44;28.93;;;15.43;;
7843;SDS011;3967;48.702;9.326;2024-03-08T12:51:13;22.13;;;14.77;;
7843;SDS011;3967;48.702;9.326;2024-03-08T12:53:42;25.17;;;13.73;;
7843;SDS011;3967;48.702;9.326;2024-03-08T12:56:20;26.90;;;15.00;;
7843;SDS011;3967;48.702;9.326;2024-03-08T12:58:55;23.50;;;14.73;;
7843;SDS011;3967;48.702;9.326;2024-03-08T13:01:23;23.77;;;13.67;;
7843;SDS011;3967;48.702;9.326;2024-03-08T13:03:50;24.23;;;15.17;;
7843;SDS011;3967;48.702;9.326;2024-03-08T13:06:16;23.93;;;15.73;;
7843;SDS011;3967;48.702;9.326;2024-03-08T13:08:43;23.80;;;14.70;;
7843;SDS011;3967;48.702;9.326;2024-03-08T13:11:10;27.93;;;14.77;;
7843;SDS011;3967;48.702;9.326;2024-03-08T13:13:38;26.33;;;15.77;;
7843;SDS011;3967;48.702;9.326;2024-03-08T13:16:06;23.93;;;14.90;;
7843;SDS011;3967;48.702;9.326;2024-03-08T13:18:37;23.33;;;15.13;;
7843;SDS011;3967;48.702;9.326;2024-03-08T13:21:04;26.27;;;14.93;;
7843;SDS011;3967;48.702;9.326;2024-03-08T13:23:34;25.27;;;13.97;;
7843;SDS011;3967;48.702;9.326;2024-03-08T13:26:07;23.00;;;15.47;;
7843;SDS011;3967;48.702;9.326;2024-03-08T13:28:35;24.50;;;15.77;;
7843;SDS011;3967;48.702;9.326;2024-03-08T13:31:05;25.50;;;14.87;;
7843;SDS011;3967;48.702;9.326;2024-03-08T13:33:38;22.67;;;13.83;;
7843;SDS011;3967;48.702;9.326;2024-03-08T13:36:05;23.07;;;14.77;;
7843;SDS011;3967;48.702;9.326;2024-03-08T13:38:38;23.60;;;13.90;;
7843;SDS011;3967;48.702;9.326;2024-03-08T13:41:06;27.03;;;14.87;;
7843;SDS011;3967;48.702;9.326;2024-03-08T13:43:32;23.97;;;15.27;;
7843;SDS011;3967;48.702;9.326;2024-03-08T13:46:01;23.03;;;13.30;;
7843;SDS011;3967;48.702;9.326;2024-03-08T13:48:28;26.23;;;14.17;;
7843;SDS011;3967;48.702;9.326;2024-03-08T13:50:55;25.50;;;14.70;;
7843;SDS011;3967;48.702;9.326;2024-03-08T13:53:23;21.37;;;13.80;;
7843;SDS011;3967;48.702;9.326;2024-03-08T13:55:50;23.77;;;13.93;;
7843;SDS011;3967;48.702;9.326;2024-03-08T13:58:16;22.23;;;14.27;;
7843;SDS011;3967;48.702;9.326;2024-03-08T14:00:43;26.13;;;14.63;;
7843;SDS011;3967;48.702;9.326;2024-03-08T14:03:12;23.30;;;14.90;;
7843;SDS011;3967;48.702;9.326;2024-03-08T14:05:40;24.27;;;15.17;;
7843;SDS011;3967;48.702;9.326;2024-03-08T14:08:09;21.67;;;14.13;;
7843;SDS011;3967;48.702;9.326;2024-03-08T14:10:38;20.70;;;13.23;;
7843;SDS011;3967;48.702;9.326;2024-03-08T14:13:05;21.90;;;13.97;;
7843;SDS011;3967;48.702;9.326;2024-03-08T14:15:33;22.30;;;14.20;;
7843;SDS011;3967;48.702;9.326;2024-03-08T14:18:01;23.20;;;14.47;;
7843;SDS011;3967;48.702;9.326;2024-03-08T14:20:28;20.67;;;13.83;;
7843;SDS011;3967;48.702;9.326;2024-03-08T14:22:55;21.47;;;14.27;;
7843;SDS011;3967;48.702;9.326;2024-03-08T14:25:23;23.83;;;15.07;;
7843;SDS011;3967;48.702;9.326;2024-03-08T14:27:51;24.37;;;14.37;;
7843;SDS011;3967;48.702;9.326;2024-03-08T14:30:24;19.87;;;13.73;;
7843;SDS011;3967;48.702;9.326;2024-03-08T14:33:02;21.30;;;13.83;;
7843;SDS011;3967;48.702;9.326;2024-03-08T14:35:29;23.07;;;13.97;;
7843;SDS011;3967;48.702;9.326;2024-03-08T14:37:56;23.77;;;15.07;;
7843;SDS011;3967;48.702;9.326;2024-03-08T14:40:24;21.93;;;13.83;;
7843;SDS011;3967;48.702;9.326;2024-03-08T14:42:52;22.67;;;14.37;;
7843;SDS011;3967;48.702;9.326;2024-03-08T14:45:19;20.53;;;14.03;;
7843;SDS011;3967;48.702;9.326;2024-03-08T14:47:46;21.63;;;14.97;;
7843;SDS011;3967;48.702;9.326;2024-03-08T14:50:17;26.53;;;15.20;;
7843;SDS011;3967;48.702;9.326;2024-03-08T14:52:45;24.97;;;14.73;;
7843;SDS011;3967;48.702;9.326;2024-03-08T14:55:15;24.40;;;15.10;;
7843;SDS011;3967;48.702;9.326;2024-03-08T14:57:43;22.97;;;14.30;;
7843;SDS011;3967;48.702;9.326;2024-03-08T15:00:13;23.97;;;15.27;;
7843;SDS011;3967;48.702;9.326;2024-03-08T15:02:44;20.60;;;13.97;;
7843;SDS011;3967;48.702;9.326;2024-03-08T15:05:13;23.27;;;15.13;;
7843;SDS011;3967;48.702;9.326;2024-03-08T15:07:40;21.70;;;14.17;;